sensor_id;sensor_type;location;lat;lon;timestamp;pressure;altitude;pressure_sealevel;temperature;humidity
65359;BME280;52491;45.900;6.346;2022-09-27T16:03:03;93088.94;;;20.33;44.20
65359;BME280;52491;45.900;6.346;2022-09-27T16:05:29;93088.16;;;20.80;43.28
65359;BME280;52491;45.900;6.346;2022-09-27T16:07:57;93082.78;;;21.38;42.01
65359;BME280;52491;45.900;6.346;2022-09-27T16:10:28;93082.84;;;21.74;41.17
65359;BME280;52491;45.900;6.346;2022-09-27T16:12:55;93076.19;;;22.02;40.74
65359;BME280;52491;45.900;6.346;2022-09-27T16:15:20;93076.44;;;22.21;40.24
65359;BME280;52491;45.900;6.346;2022-09-27T16:17:46;93072.97;;;22.41;39.88
65359;BME280;52491;45.900;6.346;2022-09-27T16:20:16;93091.03;;;22.44;39.92
65359;BME280;52491;45.900;6.346;2022-09-27T16:22:42;93085.72;;;22.23;40.26
65359;BME280;52491;45.900;6.346;2022-09-27T16:25:08;93079.84;;;22.52;39.78
65359;BME280;52491;45.900;6.346;2022-09-27T16:27:35;93085.47;;;21.99;40.80
65359;BME280;52491;45.900;6.346;2022-09-27T16:30:02;93086.44;;;22.70;39.41
65359;BME280;52491;45.900;6.346;2022-09-27T16:32:28;93091.19;;;22.83;39.12
65359;BME280;52491;45.900;6.346;2022-09-27T16:34:54;93082.66;;;22.91;38.96
65359;BME280;52491;45.900;6.346;2022-09-27T16:37:21;93095.56;;;22.38;39.79
65359;BME280;52491;45.900;6.346;2022-09-27T16:39:46;93100.88;;;22.23;40.23
65359;BME280;52491;45.900;6.346;2022-09-27T16:42:12;93099.28;;;22.22;40.39
65359;BME280;52491;45.900;6.346;2022-09-27T16:44:38;93101.41;;;22.25;40.42
65359;BME280;52491;45.900;6.346;2022-09-27T16:47:05;93093.97;;;22.27;40.29
65359;BME280;52491;45.900;6.346;2022-09-27T16:49:32;93095.03;;;22.31;40.29
65359;BME280;52491;45.900;6.346;2022-09-27T16:52:16;93090.50;;;22.31;40.44
65359;BME280;52491;45.900;6.346;2022-09-27T16:54:42;93096.09;;;22.35;40.34
65359;BME280;52491;45.900;6.346;2022-09-27T16:57:08;93101.38;;;22.40;40.24
65359;BME280;52491;45.900;6.346;2022-09-27T16:59:34;93093.41;;;22.50;40.12
65359;BME280;52491;45.900;6.346;2022-09-27T17:02:00;93092.59;;;22.50;40.29
65359;BME280;52491;45.900;6.346;2022-09-27T17:04:27;93091.25;;;22.58;40.17
65359;BME280;52491;45.900;6.346;2022-09-27T17:06:56;93106.63;;;22.66;40.48
65359;BME280;52491;45.900;6.346;2022-09-27T17:09:22;93106.06;;;22.74;40.09
65359;BME280;52491;45.900;6.346;2022-09-27T17:11:48;93108.72;;;22.79;40.08
65359;BME280;52491;45.900;6.346;2022-09-27T17:14:14;93117.28;;;23.36;38.88
65359;BME280;52491;45.900;6.346;2022-09-27T17:16:46;93121.56;;;23.27;38.95
65359;BME280;52491;45.900;6.346;2022-09-27T17:19:13;93128.91;;;22.95;39.59
65359;BME280;52491;45.900;6.346;2022-09-27T17:21:40;93133.66;;;22.93;39.85
65359;BME280;52491;45.900;6.346;2022-09-27T17:24:06;93135.25;;;22.94;39.90
65359;BME280;52491;45.900;6.346;2022-09-27T17:26:32;93134.72;;;22.92;39.91
65359;BME280;52491;45.900;6.346;2022-09-27T17:28:59;93128.94;;;22.80;40.30
65359;BME280;52491;45.900;6.346;2022-09-27T17:31:26;93122.00;;;22.79;40.44
65359;BME280;52491;45.900;6.346;2022-09-27T17:33:52;93121.22;;;22.78;40.41
65359;BME280;52491;45.900;6.346;2022-09-27T17:36:20;93113.47;;;22.82;40.51
65359;BME280;52491;45.900;6.346;2022-09-27T17:38:48;93108.69;;;22.84;40.38
65359;BME280;52491;45.900;6.346;2022-09-27T17:41:25;93106.56;;;22.86;40.32
65359;BME280;52491;45.900;6.346;2022-09-27T17:43:53;93108.16;;;22.87;40.41
65359;BME280;52491;45.900;6.346;2022-09-27T17:46:21;93101.78;;;22.88;40.58
65359;BME280;52491;45.900;6.346;2022-09-27T17:48:48;93099.94;;;22.89;40.48
65359;BME280;52491;45.900;6.346;2022-09-27T17:51:34;93103.09;;;22.91;40.62
65359;BME280;52491;45.900;6.346;2022-09-27T17:54:00;93101.75;;;22.93;40.36
65359;BME280;52491;45.900;6.346;2022-09-27T17:56:26;93103.34;;;22.94;40.37
65359;BME280;52491;45.900;6.346;2022-09-27T17:58:53;93109.22;;;22.96;40.20
65359;BME280;52491;45.900;6.346;2022-09-27T18:01:21;93112.41;;;22.98;40.36
65359;BME280;52491;45.900;6.346;2022-09-27T18:03:47;93112.94;;;23.00;40.27
65359;BME280;52491;45.900;6.346;2022-09-27T18:06:14;93112.63;;;23.07;40.18
65359;BME280;52491;45.900;6.346;2022-09-27T18:08:43;93120.59;;;23.07;40.29
65359;BME280;52491;45.900;6.346;2022-09-27T18:11:11;93120.34;;;23.09;40.26
65359;BME280;52491;45.900;6.346;2022-09-27T18:13:37;93103.31;;;23.10;40.13
65359;BME280;52491;45.900;6.346;2022-09-27T18:16:12;93116.59;;;23.10;40.25
65359;BME280;52491;45.900;6.346;2022-09-27T18:18:39;93112.91;;;23.11;40.14
65359;BME280;52491;45.900;6.346;2022-09-27T18:21:13;93113.69;;;23.11;40.13
65359;BME280;52491;45.900;6.346;2022-09-27T18:23:40;93113.41;;;23.13;40.21
65359;BME280;52491;45.900;6.346;2022-09-27T18:26:07;93108.63;;;23.15;40.17
65359;BME280;52491;45.900;6.346;2022-09-27T18:28:38;93121.13;;;23.14;40.18
65359;BME280;52491;45.900;6.346;2022-09-27T18:31:13;93122.69;;;23.15;40.47
65359;BME280;52491;45.900;6.346;2022-09-27T18:33:39;93132.53;;;23.15;40.09
65359;BME280;52491;45.900;6.346;2022-09-27T18:36:08;93129.34;;;23.18;40.08
65359;BME280;52491;45.900;6.346;2022-09-27T18:38:35;93129.34;;;23.18;40.00
65359;BME280;52491;45.900;6.346;2022-09-27T18:41:09;93138.31;;;23.27;39.82
65359;BME280;52491;45.900;6.346;2022-09-27T18:43:36;93126.41;;;23.19;39.93
65359;BME280;52491;45.900;6.346;2022-09-27T18:46:03;93121.59;;;23.21;39.84
65359;BME280;52491;45.900;6.346;2022-09-27T18:48:33;93122.41;;;23.22;39.72
65359;BME280;52491;45.900;6.346;2022-09-27T18:51:05;93129.31;;;23.23;39.80
65359;BME280;52491;45.900;6.346;2022-09-27T18:53:30;93131.97;;;23.23;39.53
65359;BME280;52491;45.900;6.346;2022-09-27T18:56:03;93123.72;;;23.24;39.85
65359;BME280;52491;45.900;6.346;2022-09-27T18:58:28;93122.66;;;23.26;39.77
65359;BME280;52491;45.900;6.346;2022-09-27T19:00:58;93135.72;;;23.17;39.73
65359;BME280;52491;45.900;6.346;2022-09-27T19:03:24;93134.13;;;23.16;39.88
65359;BME280;52491;45.900;6.346;2022-09-27T19:05:56;93136.78;;;23.16;39.92
65359;BME280;52491;45.900;6.346;2022-09-27T19:08:22;93145.56;;;23.16;39.88
65359;BME280;52491;45.900;6.346;2022-09-27T19:10:48;93146.88;;;23.19;39.99
65359;BME280;52491;45.900;6.346;2022-09-27T19:13:14;93142.63;;;23.23;39.96
65359;BME280;52491;45.900;6.346;2022-09-27T19:15:41;93144.75;;;23.21;39.85
65359;BME280;52491;45.900;6.346;2022-09-27T19:18:07;93146.59;;;23.20;39.92
65359;BME280;52491;45.900;6.346;2022-09-27T19:20:33;93155.63;;;23.24;39.78
65359;BME280;52491;45.900;6.346;2022-09-27T19:22:59;93143.69;;;23.22;39.80
65359;BME280;52491;45.900;6.346;2022-09-27T19:25:25;93140.50;;;23.20;39.89
65359;BME280;52491;45.900;6.346;2022-09-27T19:27:51;93150.84;;;23.21;39.75
65359;BME280;52491;45.900;6.346;2022-09-27T19:30:17;93143.16;;;23.20;39.78
65359;BME280;52491;45.900;6.346;2022-09-27T19:32:46;93153.50;;;23.21;39.94
65359;BME280;52491;45.900;6.346;2022-09-27T19:35:12;93150.84;;;23.21;40.04
65359;BME280;52491;45.900;6.346;2022-09-27T19:37:39;93151.66;;;23.22;39.94
65359;BME280;52491;45.900;6.346;2022-09-27T19:40:05;93159.66;;;23.22;39.74
65359;BME280;52491;45.900;6.346;2022-09-27T19:42:31;93149.00;;;23.22;39.78
65359;BME280;52491;45.900;6.346;2022-09-27T19:44:56;93149.00;;;23.22;39.72
65359;BME280;52491;45.900;6.346;2022-09-27T19:47:22;93155.91;;;23.23;39.68
65359;BME280;52491;45.900;6.346;2022-09-27T19:49:47;93162.25;;;23.27;39.55
65359;BME280;52491;45.900;6.346;2022-09-27T19:52:13;93159.59;;;23.27;39.47
65359;BME280;52491;45.900;6.346;2022-09-27T19:54:39;93165.75;;;23.28;39.53
65359;BME280;52491;45.900;6.346;2022-09-27T19:57:04;93158.56;;;23.28;39.45
65359;BME280;52491;45.900;6.346;2022-09-27T19:59:30;93145.25;;;23.28;39.39
65359;BME280;52491;45.900;6.346;2022-09-27T20:01:55;93155.38;;;23.26;39.49
65359;BME280;52491;45.900;6.346;2022-09-27T20:04:21;93154.28;;;23.27;39.27
65359;BME280;52491;45.900;6.346;2022-09-27T20:06:46;93148.44;;;23.30;39.30
65359;BME280;52491;45.900;6.346;2022-09-27T20:09:13;93145.78;;;23.30;39.29
65359;BME280;52491;45.900;6.346;2022-09-27T20:11:39;93147.38;;;23.31;39.42
65359;BME280;52491;45.900;6.346;2022-09-27T20:14:05;93148.94;;;23.32;39.24
65359;BME280;52491;45.900;6.346;2022-09-27T20:16:30;93141.75;;;23.33;39.18
65359;BME280;52491;45.900;6.346;2022-09-27T20:18:58;93147.38;;;23.31;39.18
65359;BME280;52491;45.900;6.346;2022-09-27T20:21:32;93151.91;;;23.31;39.01
65359;BME280;52491;45.900;6.346;2022-09-27T20:23:59;93150.03;;;23.31;39.27
65359;BME280;52491;45.900;6.346;2022-09-27T20:26:27;93148.44;;;23.30;39.25
65359;BME280;52491;45.900;6.346;2022-09-27T20:28:56;93153.47;;;23.32;39.12
65359;BME280;52491;45.900;6.346;2022-09-27T20:31:24;93146.78;;;23.44;39.04
65359;BME280;52491;45.900;6.346;2022-09-27T20:33:50;93148.34;;;23.51;38.80
65359;BME280;52491;45.900;6.346;2022-09-27T20:36:23;93147.00;;;23.53;38.70
65359;BME280;52491;45.900;6.346;2022-09-27T20:38:49;93141.66;;;23.53;38.74
65359;BME280;52491;45.900;6.346;2022-09-27T20:41:17;93133.69;;;23.53;38.90
65359;BME280;52491;45.900;6.346;2022-09-27T20:43:45;93127.28;;;23.54;38.74
65359;BME280;52491;45.900;6.346;2022-09-27T20:46:13;93131.81;;;23.54;38.55
65359;BME280;52491;45.900;6.346;2022-09-27T20:48:39;93131.81;;;23.54;38.63
65359;BME280;52491;45.900;6.346;2022-09-27T20:51:05;93127.66;;;23.37;39.00
65359;BME280;52491;45.900;6.346;2022-09-27T20:53:32;93121.53;;;23.37;38.88
65359;BME280;52491;45.900;6.346;2022-09-27T20:55:59;93120.47;;;23.38;38.96
65359;BME280;52491;45.900;6.346;2022-09-27T20:58:27;93117.78;;;23.38;38.99
65359;BME280;52491;45.900;6.346;2022-09-27T21:00:53;93119.63;;;23.48;38.77
65359;BME280;52491;45.900;6.346;2022-09-27T21:03:19;93114.00;;;23.49;38.69
65359;BME280;52491;45.900;6.346;2022-09-27T21:06:11;93114.31;;;23.48;38.74
65359;BME280;52491;45.900;6.346;2022-09-27T21:08:41;93114.31;;;23.48;38.75
65359;BME280;52491;45.900;6.346;2022-09-27T21:11:13;93112.66;;;23.52;38.63
65359;BME280;52491;45.900;6.346;2022-09-27T21:13:41;93113.16;;;23.64;38.37
65359;BME280;52491;45.900;6.346;2022-09-27T21:16:09;93108.09;;;23.57;38.39
65359;BME280;52491;45.900;6.346;2022-09-27T21:18:35;93100.88;;;23.63;38.43
65359;BME280;52491;45.900;6.346;2022-09-27T21:21:06;93104.06;;;23.70;38.03
65359;BME280;52491;45.900;6.346;2022-09-27T21:23:33;93102.72;;;23.73;38.22
65359;BME280;52491;45.900;6.346;2022-09-27T21:26:07;93095.81;;;23.72;38.10
65359;BME280;52491;45.900;6.346;2022-09-27T21:28:35;93096.31;;;23.68;37.90
65359;BME280;52491;45.900;6.346;2022-09-27T21:31:08;93104.06;;;23.65;38.22
65359;BME280;52491;45.900;6.346;2022-09-27T21:33:34;93100.84;;;23.68;37.90
65359;BME280;52491;45.900;6.346;2022-09-27T21:36:01;93096.09;;;23.65;38.19
65359;BME280;52491;45.900;6.346;2022-09-27T21:38:29;93100.34;;;23.66;38.11
65359;BME280;52491;45.900;6.346;2022-09-27T21:40:58;93098.22;;;23.63;38.07
65359;BME280;52491;45.900;6.346;2022-09-27T21:43:33;93094.84;;;23.52;38.13
65359;BME280;52491;45.900;6.346;2022-09-27T21:46:08;93098.91;;;23.44;38.53
65359;BME280;52491;45.900;6.346;2022-09-27T21:48:35;93101.50;;;23.50;38.24
65359;BME280;52491;45.900;6.346;2022-09-27T21:51:15;93096.72;;;23.52;38.13
65359;BME280;52491;45.900;6.346;2022-09-27T21:53:43;93109.25;;;23.46;38.39
65359;BME280;52491;45.900;6.346;2022-09-27T21:56:12;93102.53;;;23.59;38.13
65359;BME280;52491;45.900;6.346;2022-09-27T21:58:39;93093.13;;;23.66;38.02
65359;BME280;52491;45.900;6.346;2022-09-27T22:01:09;93085.47;;;23.60;37.93
65359;BME280;52491;45.900;6.346;2022-09-27T22:03:39;93089.13;;;23.69;37.88
65359;BME280;52491;45.900;6.346;2022-09-27T22:06:12;93084.91;;;23.68;37.70
65359;BME280;52491;45.900;6.346;2022-09-27T22:08:38;93079.84;;;23.66;37.79
65359;BME280;52491;45.900;6.346;2022-09-27T22:11:04;93075.59;;;23.65;37.75
65359;BME280;52491;45.900;6.346;2022-09-27T22:13:31;93074.50;;;23.66;37.76
65359;BME280;52491;45.900;6.346;2022-09-27T22:16:01;93080.66;;;23.67;38.00
65359;BME280;52491;45.900;6.346;2022-09-27T22:18:27;93081.16;;;23.69;37.78
65359;BME280;52491;45.900;6.346;2022-09-27T22:20:59;93071.97;;;23.51;37.82
65359;BME280;52491;45.900;6.346;2022-09-27T22:23:25;93070.13;;;23.46;38.30
65359;BME280;52491;45.900;6.346;2022-09-27T22:25:51;93070.59;;;23.59;37.74
65359;BME280;52491;45.900;6.346;2022-09-27T22:28:16;93068.75;;;23.54;37.89
65359;BME280;52491;45.900;6.346;2022-09-27T22:30:42;93062.63;;;23.59;37.48
65359;BME280;52491;45.900;6.346;2022-09-27T22:33:07;93057.78;;;23.61;37.46
65359;BME280;52491;45.900;6.346;2022-09-27T22:35:33;93055.13;;;23.61;37.52
65359;BME280;52491;45.900;6.346;2022-09-27T22:37:58;93046.88;;;23.62;37.39
65359;BME280;52491;45.900;6.346;2022-09-27T22:40:24;93045.81;;;23.63;37.40
65359;BME280;52491;45.900;6.346;2022-09-27T22:42:50;93049.53;;;23.62;37.45
65359;BME280;52491;45.900;6.346;2022-09-27T22:45:15;93039.78;;;23.53;37.82
65359;BME280;52491;45.900;6.346;2022-09-27T22:47:42;93046.72;;;23.49;37.74
65359;BME280;52491;45.900;6.346;2022-09-27T22:50:08;93038.72;;;23.49;37.90
65359;BME280;52491;45.900;6.346;2022-09-27T22:52:33;93027.81;;;23.50;37.63
65359;BME280;52491;45.900;6.346;2022-09-27T22:54:59;93017.63;;;23.62;37.51
65359;BME280;52491;45.900;6.346;2022-09-27T22:57:25;93019.50;;;23.62;37.22
65359;BME280;52491;45.900;6.346;2022-09-27T22:59:50;93012.81;;;23.64;37.39
65359;BME280;52491;45.900;6.346;2022-09-27T23:02:16;93005.41;;;23.61;37.24
65359;BME280;52491;45.900;6.346;2022-09-27T23:04:42;93005.09;;;23.63;37.42
65359;BME280;52491;45.900;6.346;2022-09-27T23:07:07;93001.66;;;23.62;37.37
65359;BME280;52491;45.900;6.346;2022-09-27T23:09:33;92987.81;;;23.60;37.46
65359;BME280;52491;45.900;6.346;2022-09-27T23:11:59;92984.91;;;23.62;37.29
65359;BME280;52491;45.900;6.346;2022-09-27T23:14:24;92973.53;;;23.51;37.47
65359;BME280;52491;45.900;6.346;2022-09-27T23:16:50;92972.25;;;23.43;37.47
65359;BME280;52491;45.900;6.346;2022-09-27T23:19:17;92965.38;;;23.42;37.48
65359;BME280;52491;45.900;6.346;2022-09-27T23:21:44;92965.63;;;23.41;37.63
65359;BME280;52491;45.900;6.346;2022-09-27T23:24:09;92950.22;;;23.38;37.56
65359;BME280;52491;45.900;6.346;2022-09-27T23:26:36;92949.97;;;23.39;37.47
65359;BME280;52491;45.900;6.346;2022-09-27T23:29:01;92946.78;;;23.37;37.66
65359;BME280;52491;45.900;6.346;2022-09-27T23:31:29;92940.38;;;23.38;37.49
65359;BME280;52491;45.900;6.346;2022-09-27T23:33:56;92936.94;;;23.38;37.59
65359;BME280;52491;45.900;6.346;2022-09-27T23:36:24;92932.69;;;23.37;37.47
65359;BME280;52491;45.900;6.346;2022-09-27T23:38:52;92924.19;;;23.35;37.58
65359;BME280;52491;45.900;6.346;2022-09-27T23:41:18;92919.66;;;23.35;37.57
65359;BME280;52491;45.900;6.346;2022-09-27T23:43:45;92926.59;;;23.36;37.05
65359;BME280;52491;45.900;6.346;2022-09-27T23:46:12;92914.69;;;23.29;37.53
65359;BME280;52491;45.900;6.346;2022-09-27T23:48:38;92918.13;;;23.29;37.63
65359;BME280;52491;45.900;6.346;2022-09-27T23:51:06;92911.22;;;23.28;37.65
65359;BME280;52491;45.900;6.346;2022-09-27T23:53:32;92908.03;;;23.26;37.63
65359;BME280;52491;45.900;6.346;2022-09-27T23:56:10;92910.72;;;23.26;37.66
65359;BME280;52491;45.900;6.346;2022-09-27T23:58:39;92906.97;;;23.27;37.43
